Time;durP1;ratioP1;P1;durP2;ratioP2;P2;SDS_P1;SDS_P2;PMS_P1;PMS_P2;Temp;Humidity;BMP_temperature;BMP_pressure;BME280_temperature;BME280_humidity;BME280_pressure;Samples;Min_cycle;Max_cycle;Signal;HPM_P1;HPM_P2
2023/07/17 00:00:53;;;;;;;;;;;22.30;65.80;;;;;;5020109;28;855;-73
2023/07/17 00:03:19;;;;;;;;;;;22.30;65.70;;;;;;5023309;28;864;-74
2023/07/17 00:05:44;;;;;;;;;;;22.20;65.70;;;;;;5020746;28;859;-73
2023/07/17 00:08:10;;;;;;;;;;;22.20;65.70;;;;;;5020118;28;829;-72
2023/07/17 00:10:38;;;;;;;;;;;22.20;65.70;;;;;;5017243;28;1338;-73
2023/07/17 00:13:04;;;;;;;;;;;22.30;65.80;;;;;;5019567;28;883;-73
2023/07/17 00:15:29;;;;;;;;;;;22.20;65.70;;;;;;5021045;28;868;-73
2023/07/17 00:17:55;;;;;;;;;;;22.30;65.80;;;;;;5019822;28;899;-73
2023/07/17 00:20:20;;;;;;;;;;;22.30;65.80;;;;;;5019258;28;1968;-73
2023/07/17 00:22:46;;;;;;;;;;;22.30;65.80;;;;;;5017115;28;807;-73
2023/07/17 00:25:11;;;;;;;;;;;22.30;66.70;;;;;;5019172;28;887;-73
2023/07/17 00:27:37;;;;;;;;;;;22.20;65.80;;;;;;5019191;28;1330;-72
2023/07/17 00:30:02;;;;;;;;;;;22.30;65.90;;;;;;5018058;28;1262;-73
2023/07/17 00:32:28;;;;;;;;;;;22.30;65.90;;;;;;5017251;28;874;-73
2023/07/17 00:34:53;;;;;;;;;;;22.20;65.80;;;;;;5022467;28;1516;-73
2023/07/17 00:37:19;;;;;;;;;;;22.20;65.80;;;;;;5019773;28;918;-72
2023/07/17 00:39:44;;;;;;;;;;;22.30;66.00;;;;;;5020068;28;1902;-73
2023/07/17 00:42:10;;;;;;;;;;;22.20;65.90;;;;;;5017414;28;865;-72
2023/07/17 00:44:35;;;;;;;;;;;22.30;66.00;;;;;;5020296;28;1672;-72
2023/07/17 00:47:01;;;;;;;;;;;22.20;65.90;;;;;;5016864;28;976;-73
2023/07/17 00:49:27;;;;;;;;;;;22.20;65.90;;;;;;5019241;28;1343;-73
2023/07/17 00:51:53;;;;;;;;;;;22.30;66.00;;;;;;5018531;28;1160;-74
2023/07/17 00:54:18;;;;;;;;;;;22.30;66.00;;;;;;5009020;28;1690;-72
2023/07/17 00:56:44;;;;;;;;;;;22.30;66.00;;;;;;5018177;28;879;-73
2023/07/17 00:59:09;;;;;;;;;;;22.30;66.10;;;;;;5018351;28;1973;-72
2023/07/17 01:01:35;;;;;;;;;;;22.30;66.10;;;;;;5020741;28;919;-71
2023/07/17 01:04:01;;;;;;;;;;;22.30;66.10;;;;;;5021774;28;932;-72
2023/07/17 01:06:26;;;;;;;;;;;22.20;66.00;;;;;;5021235;28;900;-72
2023/07/17 01:08:52;;;;;;;;;;;22.20;66.00;;;;;;5022227;28;1311;-72
2023/07/17 01:11:17;;;;;;;;;;;22.20;66.00;;;;;;5019394;28;943;-74
2023/07/17 01:13:43;;;;;;;;;;;22.20;66.00;;;;;;5020121;28;928;-70
2023/07/17 01:16:09;;;;;;;;;;;22.20;66.00;;;;;;5023118;28;843;-71
2023/07/17 01:18:35;;;;;;;;;;;22.20;66.00;;;;;;5023756;28;1898;-70
2023/07/17 01:21:00;;;;;;;;;;;22.30;66.10;;;;;;5025926;28;876;-70
2023/07/17 01:23:26;;;;;;;;;;;22.30;66.10;;;;;;5022350;28;855;-71
2023/07/17 01:25:54;;;;;;;;;;;22.20;66.00;;;;;;5022510;28;941;-70
2023/07/17 01:28:19;;;;;;;;;;;22.20;66.00;;;;;;5021994;28;1400;-72
2023/07/17 01:30:45;;;;;;;;;;;22.20;66.10;;;;;;5020877;28;869;-71
2023/07/17 01:33:11;;;;;;;;;;;22.20;66.10;;;;;;5023072;28;1250;-72
2023/07/17 01:35:36;;;;;;;;;;;22.20;66.10;;;;;;5022018;28;987;-71
2023/07/17 01:38:02;;;;;;;;;;;22.20;66.10;;;;;;5023255;28;1049;-71
2023/07/17 01:40:27;;;;;;;;;;;22.20;66.10;;;;;;5020706;28;1965;-71
2023/07/17 01:42:52;;;;;;;;;;;22.20;66.20;;;;;;5021154;28;876;-71
2023/07/17 01:45:18;;;;;;;;;;;22.20;66.10;;;;;;5018641;28;1058;-71
2023/07/17 01:47:43;;;;;;;;;;;22.20;66.10;;;;;;5019125;28;926;-71
2023/07/17 01:50:09;;;;;;;;;;;22.20;66.10;;;;;;5020200;28;1344;-71
2023/07/17 01:52:34;;;;;;;;;;;22.20;66.10;;;;;;5021197;28;1003;-72
2023/07/17 01:55:00;;;;;;;;;;;22.20;66.20;;;;;;5021102;28;796;-72
2023/07/17 01:57:25;;;;;;;;;;;22.20;66.20;;;;;;5021085;28;1562;-72
2023/07/17 01:59:51;;;;;;;;;;;22.20;66.20;;;;;;5017575;28;1963;-72
2023/07/17 02:02:16;;;;;;;;;;;22.20;66.20;;;;;;5021540;28;844;-73
2023/07/17 02:04:42;;;;;;;;;;;22.20;66.20;;;;;;5022448;28;792;-73
2023/07/17 02:07:07;;;;;;;;;;;22.30;66.30;;;;;;5021689;28;894;-73
2023/07/17 02:09:33;;;;;;;;;;;22.20;66.20;;;;;;5015943;28;1273;-72
2023/07/17 02:11:58;;;;;;;;;;;22.20;66.20;;;;;;5022981;28;935;-73
2023/07/17 02:14:24;;;;;;;;;;;22.20;66.20;;;;;;5019161;28;858;-73
2023/07/17 02:16:49;;;;;;;;;;;22.20;66.20;;;;;;5015578;28;873;-72
2023/07/17 02:19:16;;;;;;;;;;;22.30;66.40;;;;;;5022881;28;1875;-72
2023/07/17 02:21:41;;;;;;;;;;;22.20;66.30;;;;;;5022134;28;1564;-72
2023/07/17 02:24:07;;;;;;;;;;;22.20;66.30;;;;;;5021298;28;923;-73
2023/07/17 02:26:32;;;;;;;;;;;22.20;66.30;;;;;;5021601;28;1317;-72
2023/07/17 02:28:58;;;;;;;;;;;22.20;66.30;;;;;;5020289;28;1432;-72
2023/07/17 02:31:23;;;;;;;;;;;22.20;66.30;;;;;;5021578;28;859;-71
2023/07/17 02:33:49;;;;;;;;;;;22.20;66.30;;;;;;5021855;28;1266;-73
2023/07/17 02:36:14;;;;;;;;;;;22.20;66.30;;;;;;5022180;28;757;-74
2023/07/17 02:38:39;;;;;;;;;;;22.20;66.30;;;;;;5016894;28;1898;-70
2023/07/17 02:41:05;;;;;;;;;;;22.30;66.40;;;;;;5021425;28;944;-73
2023/07/17 02:43:30;;;;;;;;;;;22.20;66.30;;;;;;5019252;28;878;-72
2023/07/17 02:45:56;;;;;;;;;;;22.20;66.40;;;;;;5017025;28;856;-72
2023/07/17 02:48:21;;;;;;;;;;;22.20;66.40;;;;;;5020251;28;1272;-73
2023/07/17 02:50:49;;;;;;;;;;;22.20;66.40;;;;;;5021169;28;870;-72
2023/07/17 02:53:15;;;;;;;;;;;22.20;66.40;;;;;;5022308;28;857;-72
2023/07/17 02:55:40;;;;;;;;;;;22.20;66.40;;;;;;5017008;28;833;-73
2023/07/17 02:58:06;;;;;;;;;;;22.20;66.40;;;;;;5019291;28;1560;-73
2023/07/17 03:00:33;;;;;;;;;;;22.20;66.40;;;;;;5016244;28;1910;-73
2023/07/17 03:02:58;;;;;;;;;;;22.20;66.40;;;;;;5017275;28;884;-73
2023/07/17 03:05:24;;;;;;;;;;;22.20;66.40;;;;;;5012694;28;1284;-73
2023/07/17 03:07:50;;;;;;;;;;;22.20;66.40;;;;;;5017588;28;1043;-72
2023/07/17 03:10:16;;;;;;;;;;;22.20;66.40;;;;;;5018159;28;1269;-72
2023/07/17 03:12:41;;;;;;;;;;;22.20;66.50;;;;;;5020978;28;811;-73
2023/07/17 03:15:07;;;;;;;;;;;22.20;66.50;;;;;;5020617;28;826;-72
2023/07/17 03:17:32;;;;;;;;;;;22.20;66.50;;;;;;5020896;28;830;-72
2023/07/17 03:19:58;;;;;;;;;;;22.20;66.40;;;;;;5019916;28;1964;-72
2023/07/17 03:22:23;;;;;;;;;;;22.20;66.50;;;;;;5018096;28;938;-73
2023/07/17 03:24:49;;;;;;;;;;;22.20;66.50;;;;;;5020359;28;957;-73
2023/07/17 03:27:15;;;;;;;;;;;22.20;66.50;;;;;;5019904;28;1347;-72
2023/07/17 03:29:40;;;;;;;;;;;22.20;66.50;;;;;;5019575;28;1295;-72
2023/07/17 03:32:06;;;;;;;;;;;22.20;66.50;;;;;;5016681;28;844;-72
2023/07/17 03:34:32;;;;;;;;;;;22.20;66.50;;;;;;5023055;28;1334;-72
2023/07/17 03:36:57;;;;;;;;;;;22.20;66.50;;;;;;5018186;28;891;-73
2023/07/17 03:39:23;;;;;;;;;;;22.20;66.50;;;;;;5019336;28;1926;-72
2023/07/17 03:41:48;;;;;;;;;;;22.20;66.60;;;;;;5011997;28;1311;-73
2023/07/17 03:44:14;;;;;;;;;;;22.20;66.60;;;;;;5020572;28;804;-73
2023/07/17 03:46:39;;;;;;;;;;;22.20;66.60;;;;;;5020690;28;827;-73
2023/07/17 03:49:05;;;;;;;;;;;22.20;66.60;;;;;;5019698;28;1299;-72
2023/07/17 03:51:30;;;;;;;;;;;22.20;66.60;;;;;;5021762;28;859;-72
2023/07/17 03:53:56;;;;;;;;;;;22.20;66.60;;;;;;5019049;28;879;-72
2023/07/17 03:56:21;;;;;;;;;;;22.20;66.60;;;;;;5018090;28;1022;-73
2023/07/17 03:58:47;;;;;;;;;;;22.20;66.60;;;;;;5020432;28;1973;-73
2023/07/17 04:01:13;;;;;;;;;;;22.20;66.60;;;;;;5020580;28;822;-73
2023/07/17 04:03:38;;;;;;;;;;;22.20;66.60;;;;;;5014944;28;1156;-73
2023/07/17 04:06:04;;;;;;;;;;;22.20;66.60;;;;;;5016851;28;1165;-72
2023/07/17 04:08:29;;;;;;;;;;;22.20;66.60;;;;;;5017301;28;1364;-72
2023/07/17 04:10:55;;;;;;;;;;;22.20;66.70;;;;;;5016438;28;1218;-73
2023/07/17 04:13:20;;;;;;;;;;;22.20;66.70;;;;;;5018717;28;890;-73
2023/07/17 04:15:46;;;;;;;;;;;22.20;66.70;;;;;;5019642;28;860;-73
2023/07/17 04:18:11;;;;;;;;;;;22.20;66.70;;;;;;5019846;28;1291;-72
2023/07/17 04:20:38;;;;;;;;;;;22.20;66.70;;;;;;5009555;28;1910;-73
2023/07/17 04:23:05;;;;;;;;;;;22.20;66.70;;;;;;5019815;28;800;-73
2023/07/17 04:25:30;;;;;;;;;;;22.20;66.70;;;;;;5017595;28;828;-73
2023/07/17 04:27:56;;;;;;;;;;;22.20;66.70;;;;;;5019377;28;1378;-73
2023/07/17 04:30:22;;;;;;;;;;;22.20;66.70;;;;;;5017274;28;1260;-73
2023/07/17 04:32:47;;;;;;;;;;;22.20;66.70;;;;;;5017887;28;1269;-73
2023/07/17 04:35:13;;;;;;;;;;;22.20;66.70;;;;;;5019788;28;890;-73
2023/07/17 04:37:39;;;;;;;;;;;22.20;66.70;;;;;;5020154;28;1197;-72
2023/07/17 04:40:05;;;;;;;;;;;22.20;66.80;;;;;;5019665;28;1965;-73
2023/07/17 04:42:30;;;;;;;;;;;22.20;66.80;;;;;;5025196;28;831;-73
2023/07/17 04:44:56;;;;;;;;;;;22.20;66.70;;;;;;5024176;28;935;-72
2023/07/17 04:47:21;;;;;;;;;;;22.20;66.80;;;;;;5018443;28;938;-73
2023/07/17 04:49:47;;;;;;;;;;;22.20;66.80;;;;;;5020716;28;1281;-73
2023/07/17 04:52:12;;;;;;;;;;;22.20;66.80;;;;;;5022477;28;901;-73
2023/07/17 04:54:38;;;;;;;;;;;22.20;66.80;;;;;;5022645;28;835;-73
2023/07/17 04:57:03;;;;;;;;;;;22.20;66.80;;;;;;5021253;28;867;-73
2023/07/17 04:59:29;;;;;;;;;;;22.20;66.80;;;;;;5013030;28;1906;-72
2023/07/17 05:01:54;;;;;;;;;;;22.20;66.90;;;;;;5022920;28;1644;-73
2023/07/17 05:04:20;;;;;;;;;;;22.20;66.80;;;;;;5025389;28;812;-73
2023/07/17 05:06:45;;;;;;;;;;;22.20;66.80;;;;;;5025356;28;885;-73
2023/07/17 05:09:11;;;;;;;;;;;22.20;66.90;;;;;;5024262;28;1262;-73
2023/07/17 05:11:36;;;;;;;;;;;22.20;66.80;;;;;;5021805;28;872;-72
2023/07/17 05:14:02;;;;;;;;;;;22.20;66.80;;;;;;5023170;28;1037;-72
2023/07/17 05:16:27;;;;;;;;;;;22.20;66.80;;;;;;5021538;28;829;-73
2023/07/17 05:18:53;;;;;;;;;;;22.20;66.80;;;;;;5022332;28;1969;-72
2023/07/17 05:21:18;;;;;;;;;;;22.20;66.90;;;;;;5021511;28;839;-72
2023/07/17 05:23:43;;;;;;;;;;;22.20;66.90;;;;;;5023435;28;994;-73
2023/07/17 05:26:09;;;;;;;;;;;22.20;66.90;;;;;;5019694;28;866;-73
2023/07/17 05:28:34;;;;;;;;;;;22.20;66.80;;;;;;5018407;28;1304;-73
2023/07/17 05:31:00;;;;;;;;;;;22.20;66.90;;;;;;5020180;28;871;-73
2023/07/17 05:33:25;;;;;;;;;;;22.20;66.90;;;;;;5021573;28;1263;-73
2023/07/17 05:35:51;;;;;;;;;;;22.20;66.90;;;;;;5022517;28;804;-73
2023/07/17 05:38:16;;;;;;;;;;;22.20;66.90;;;;;;5023751;28;906;-71
2023/07/17 05:40:42;;;;;;;;;;;22.20;66.90;;;;;;5023832;28;1977;-71
2023/07/17 05:43:07;;;;;;;;;;;22.20;65.70;;;;;;5024761;28;1054;-71
2023/07/17 05:45:33;;;;;;;;;;;22.20;64.40;;;;;;5022573;28;780;-71
2023/07/17 05:47:59;;;;;;;;;;;22.20;63.70;;;;;;5022461;28;859;-71
2023/07/17 05:50:24;;;;;;;;;;;22.20;63.50;;;;;;5027627;28;1272;-71
2023/07/17 05:52:50;;;;;;;;;;;22.20;62.00;;;;;;5024011;28;903;-71
2023/07/17 05:55:15;;;;;;;;;;;22.20;61.80;;;;;;5021902;28;823;-71
2023/07/17 05:57:44;;;;;;;;;;;22.20;61.10;;;;;;5022337;28;1311;-71
2023/07/17 06:00:15;;;;;;;;;;;22.20;61.10;;;;;;5024559;28;2019;-71
2023/07/17 06:02:41;;;;;;;;;;;22.20;60.20;;;;;;5013666;28;1631;-72
2023/07/17 06:05:06;;;;;;;;;;;22.20;61.40;;;;;;5024916;28;1980;-70
2023/07/17 06:07:32;;;;;;;;;;;22.20;61.60;;;;;;5023761;28;1457;-69
2023/07/17 06:09:58;;;;;;;;;;;22.20;60.90;;;;;;5023364;28;1339;-69
2023/07/17 06:12:23;;;;;;;;;;;22.20;61.10;;;;;;5019076;28;865;-69
2023/07/17 06:14:49;;;;;;;;;;;22.20;60.40;;;;;;5020598;28;918;-69
2023/07/17 06:17:14;;;;;;;;;;;22.20;60.70;;;;;;5023777;28;1326;-69
2023/07/17 06:19:40;;;;;;;;;;;22.20;60.50;;;;;;5022182;28;1910;-69
2023/07/17 06:22:05;;;;;;;;;;;22.10;60.30;;;;;;5021009;28;840;-69
2023/07/17 06:24:31;;;;;;;;;;;22.20;60.70;;;;;;5025565;28;875;-68
2023/07/17 06:26:56;;;;;;;;;;;22.20;60.80;;;;;;5022201;28;867;-68
2023/07/17 06:29:22;;;;;;;;;;;22.20;60.80;;;;;;5023411;28;1413;-69
2023/07/17 06:31:47;;;;;;;;;;;22.20;59.90;;;;;;5022809;28;1417;-69
2023/07/17 06:34:13;;;;;;;;;;;22.20;59.10;;;;;;5023525;28;1384;-69
2023/07/17 06:36:38;;;;;;;;;;;22.20;59.30;;;;;;5018768;28;801;-69
2023/07/17 06:39:04;;;;;;;;;;;22.20;59.20;;;;;;5022715;28;1890;-69
2023/07/17 06:41:29;;;;;;;;;;;22.20;59.10;;;;;;5025933;28;995;-69
2023/07/17 06:43:54;;;;;;;;;;;22.20;59.60;;;;;;5022628;28;1085;-69
2023/07/17 06:46:20;;;;;;;;;;;22.20;59.50;;;;;;5027281;28;867;-69
2023/07/17 06:48:46;;;;;;;;;;;22.10;59.70;;;;;;5019268;28;1282;-69
2023/07/17 06:51:11;;;;;;;;;;;22.20;59.70;;;;;;5022122;28;800;-71
2023/07/17 06:53:36;;;;;;;;;;;22.10;59.90;;;;;;5022495;28;1006;-70
2023/07/17 06:56:03;;;;;;;;;;;22.20;59.20;;;;;;5029356;28;2247;-71
2023/07/17 06:58:29;;;;;;;;;;;22.20;59.50;;;;;;5025198;28;1702;-69
2023/07/17 07:00:55;;;;;;;;;;;22.20;59.90;;;;;;5019961;28;1918;-70
2023/07/17 07:03:21;;;;;;;;;;;22.20;59.40;;;;;;5018716;28;848;-70
2023/07/17 07:06:13;;;;;;;;;;;22.20;59.50;;;;;;5019233;28;910;-70
2023/07/17 07:08:40;;;;;;;;;;;22.20;59.60;;;;;;5018035;28;1375;-69
2023/07/17 07:11:05;;;;;;;;;;;22.20;59.80;;;;;;5018455;28;829;-69
2023/07/17 07:13:31;;;;;;;;;;;22.20;60.40;;;;;;5018915;28;1053;-70
2023/07/17 07:15:56;;;;;;;;;;;22.20;60.10;;;;;;5021364;28;1010;-69
2023/07/17 07:18:22;;;;;;;;;;;22.20;60.30;;;;;;5021653;28;1379;-70
2023/07/17 07:20:48;;;;;;;;;;;22.20;60.60;;;;;;5015965;28;2009;-70
2023/07/17 07:23:14;;;;;;;;;;;22.20;60.10;;;;;;5020029;28;1003;-70
2023/07/17 07:25:39;;;;;;;;;;;22.20;59.10;;;;;;5020778;28;850;-70
2023/07/17 07:28:05;;;;;;;;;;;22.20;59.50;;;;;;5022589;28;1358;-70
2023/07/17 07:30:30;;;;;;;;;;;22.20;59.10;;;;;;5020831;28;1364;-70
2023/07/17 07:32:56;;;;;;;;;;;22.30;58.30;;;;;;5019935;28;1313;-70
2023/07/17 07:35:21;;;;;;;;;;;22.30;57.50;;;;;;5020780;28;1038;-70
2023/07/17 07:37:47;;;;;;;;;;;22.20;58.40;;;;;;5019726;28;1700;-70
2023/07/17 07:40:12;;;;;;;;;;;22.30;58.30;;;;;;5022840;28;1906;-70
2023/07/17 07:42:38;;;;;;;;;;;22.20;58.70;;;;;;5022691;28;1471;-70
2023/07/17 07:45:04;;;;;;;;;;;22.30;58.40;;;;;;5020954;28;1449;-70
2023/07/17 07:47:30;;;;;;;;;;;22.30;57.90;;;;;;5016982;28;1051;-70
2023/07/17 07:49:55;;;;;;;;;;;22.30;57.70;;;;;;5016661;28;1275;-70
2023/07/17 07:52:21;;;;;;;;;;;22.30;57.50;;;;;;5017016;28;903;-70
2023/07/17 07:54:46;;;;;;;;;;;22.30;57.00;;;;;;5019338;28;983;-70
2023/07/17 07:57:12;;;;;;;;;;;22.30;57.20;;;;;;5021175;28;938;-70
2023/07/17 07:59:38;;;;;;;;;;;22.30;57.70;;;;;;5018415;28;1962;-70
2023/07/17 08:02:03;;;;;;;;;;;22.40;57.80;;;;;;5016311;28;2106;-70
2023/07/17 08:04:29;;;;;;;;;;;22.40;57.50;;;;;;5015976;28;1429;-70
2023/07/17 08:06:54;;;;;;;;;;;22.40;57.40;;;;;;5015955;28;955;-70
2023/07/17 08:09:20;;;;;;;;;;;22.40;57.10;;;;;;5018826;28;1382;-70
2023/07/17 08:11:45;;;;;;;;;;;22.40;57.00;;;;;;5021153;28;887;-70
2023/07/17 08:14:11;;;;;;;;;;;22.40;57.30;;;;;;5019504;28;961;-70
2023/07/17 08:16:36;;;;;;;;;;;22.40;57.40;;;;;;5020937;28;827;-70
2023/07/17 08:19:02;;;;;;;;;;;22.40;57.20;;;;;;5019628;28;1902;-70
2023/07/17 08:21:27;;;;;;;;;;;22.40;57.10;;;;;;5018982;28;868;-69
2023/07/17 08:23:53;;;;;;;;;;;22.40;56.70;;;;;;5019213;28;1399;-70
2023/07/17 08:26:18;;;;;;;;;;;22.40;56.70;;;;;;5020686;28;818;-70
2023/07/17 08:28:44;;;;;;;;;;;22.50;56.50;;;;;;5020111;28;1346;-70
2023/07/17 08:31:09;;;;;;;;;;;22.50;56.20;;;;;;5020033;28;850;-70
2023/07/17 08:33:34;;;;;;;;;;;22.50;56.10;;;;;;5019263;28;1262;-70
2023/07/17 08:36:00;;;;;;;;;;;22.50;56.20;;;;;;5019025;28;871;-69
2023/07/17 08:38:25;;;;;;;;;;;22.50;56.40;;;;;;5019425;28;1258;-69
2023/07/17 08:40:52;;;;;;;;;;;22.50;56.40;;;;;;5020272;28;1961;-70
2023/07/17 08:43:17;;;;;;;;;;;22.50;56.50;;;;;;5021273;28;905;-70
2023/07/17 08:45:43;;;;;;;;;;;22.50;56.30;;;;;;5018370;28;856;-70
2023/07/17 08:48:08;;;;;;;;;;;22.60;56.30;;;;;;5017804;28;820;-70
2023/07/17 08:50:34;;;;;;;;;;;22.50;56.40;;;;;;5015399;28;1319;-70
2023/07/17 08:52:59;;;;;;;;;;;22.50;55.70;;;;;;5017096;28;912;-71
2023/07/17 08:55:26;;;;;;;;;;;22.60;55.90;;;;;;5017319;28;858;-71
2023/07/17 08:57:52;;;;;;;;;;;22.60;56.00;;;;;;5017996;28;895;-70
2023/07/17 09:00:19;;;;;;;;;;;22.60;55.90;;;;;;5019939;28;1911;-70
2023/07/17 09:02:44;;;;;;;;;;;22.60;54.90;;;;;;5017954;28;871;-70
2023/07/17 09:05:10;;;;;;;;;;;22.60;54.70;;;;;;5014854;28;948;-70
2023/07/17 09:07:35;;;;;;;;;;;22.60;54.90;;;;;;5017242;28;833;-70
2023/07/17 09:10:35;;;;;;;;;;;22.60;55.20;;;;;;5018674;28;1318;-71
2023/07/17 09:13:01;;;;;;;;;;;22.60;54.70;;;;;;4996430;28;1425;-71
2023/07/17 09:15:27;;;;;;;;;;;22.60;55.10;;;;;;5021030;28;824;-71
2023/07/17 09:17:52;;;;;;;;;;;22.70;54.80;;;;;;5020236;28;830;-71
2023/07/17 09:20:19;;;;;;;;;;;22.70;54.90;;;;;;5021975;28;1967;-70
2023/07/17 09:22:44;;;;;;;;;;;22.70;54.90;;;;;;5018186;28;828;-70
2023/07/17 09:25:10;;;;;;;;;;;22.70;55.00;;;;;;5023879;28;912;-71
2023/07/17 09:27:48;;;;;;;;;;;22.70;54.90;;;;;;5018313;28;950;-71
2023/07/17 09:30:17;;;;;;;;;;;22.70;54.90;;;;;;5014837;28;1201;-71
2023/07/17 09:32:43;;;;;;;;;;;22.70;54.00;;;;;;5016083;28;889;-71
2023/07/17 09:35:11;;;;;;;;;;;22.70;54.50;;;;;;5033628;28;1173;-72
2023/07/17 09:37:37;;;;;;;;;;;22.70;54.40;;;;;;5033794;28;812;-72
2023/07/17 09:40:11;;;;;;;;;;;22.70;54.10;;;;;;5034611;28;1898;-71
2023/07/17 09:42:37;;;;;;;;;;;22.70;54.60;;;;;;5014826;28;1113;-71
2023/07/17 09:45:03;;;;;;;;;;;22.70;55.20;;;;;;5026065;28;823;-71
2023/07/17 09:47:29;;;;;;;;;;;22.80;55.50;;;;;;5018519;28;812;-71
2023/07/17 09:49:55;;;;;;;;;;;22.70;55.50;;;;;;5021411;28;1374;-71
2023/07/17 09:52:20;;;;;;;;;;;22.70;56.30;;;;;;5027181;28;824;-71
2023/07/17 09:54:46;;;;;;;;;;;22.70;55.80;;;;;;5025849;28;926;-71
2023/07/17 09:57:14;;;;;;;;;;;22.70;54.60;;;;;;5023772;28;828;-71
2023/07/17 09:59:40;;;;;;;;;;;22.70;54.40;;;;;;5022168;28;1914;-71
2023/07/17 10:02:06;;;;;;;;;;;22.70;54.40;;;;;;5025215;28;974;-71
2023/07/17 10:04:33;;;;;;;;;;;22.70;54.00;;;;;;5025654;28;1316;-71
2023/07/17 10:06:59;;;;;;;;;;;22.70;54.00;;;;;;5023046;28;879;-71
2023/07/17 10:09:24;;;;;;;;;;;22.70;54.40;;;;;;5024447;28;1228;-71
2023/07/17 10:11:50;;;;;;;;;;;22.70;54.50;;;;;;5028657;28;867;-71
2023/07/17 10:14:15;;;;;;;;;;;22.80;54.50;;;;;;5020818;28;808;-71
2023/07/17 10:16:42;;;;;;;;;;;22.70;54.60;;;;;;5026114;28;888;-71
2023/07/17 10:19:08;;;;;;;;;;;22.70;54.60;;;;;;5024118;28;1894;-71
2023/07/17 10:21:33;;;;;;;;;;;22.70;54.50;;;;;;5018245;28;790;-71
2023/07/17 10:24:02;;;;;;;;;;;22.70;54.50;;;;;;5026031;28;842;-70
2023/07/17 10:26:29;;;;;;;;;;;22.70;54.50;;;;;;5020577;28;851;-70
2023/07/17 10:28:55;;;;;;;;;;;22.70;54.70;;;;;;5000640;28;1934;-70
2023/07/17 10:31:21;;;;;;;;;;;22.70;55.60;;;;;;5019563;28;1881;-70
2023/07/17 10:33:48;;;;;;;;;;;22.70;55.70;;;;;;5031400;28;1001;-70
2023/07/17 10:36:14;;;;;;;;;;;22.70;55.10;;;;;;5032569;28;1498;-70
2023/07/17 10:38:40;;;;;;;;;;;22.70;55.20;;;;;;5032703;28;1307;-70
2023/07/17 10:41:10;;;;;;;;;;;22.70;55.10;;;;;;5025735;28;1969;-70
2023/07/17 10:43:35;;;;;;;;;;;22.70;55.10;;;;;;5012840;28;1887;-71
2023/07/17 10:46:06;;;;;;;;;;;22.70;55.10;;;;;;5009030;28;1367;-70
2023/07/17 10:48:33;;;;;;;;;;;22.70;55.00;;;;;;5023923;28;1365;-69
2023/07/17 10:50:58;;;;;;;;;;;22.70;54.10;;;;;;5018689;28;1006;-70
2023/07/17 10:53:24;;;;;;;;;;;22.70;53.50;;;;;;5021170;28;972;-70
2023/07/17 10:55:50;;;;;;;;;;;22.70;53.50;;;;;;5018803;28;839;-70
2023/07/17 10:58:17;;;;;;;;;;;22.70;54.00;;;;;;5014356;28;1201;-71
2023/07/17 11:00:42;;;;;;;;;;;22.70;54.20;;;;;;5024019;28;1973;-70
2023/07/17 11:03:14;;;;;;;;;;;22.70;54.50;;;;;;5020359;28;1026;-71
2023/07/17 11:05:40;;;;;;;;;;;22.70;54.20;;;;;;5019435;28;855;-70
2023/07/17 11:08:06;;;;;;;;;;;22.70;54.00;;;;;;5021985;28;839;-70
2023/07/17 11:10:31;;;;;;;;;;;22.70;53.50;;;;;;5022132;28;1245;-70
2023/07/17 11:13:00;;;;;;;;;;;22.70;53.80;;;;;;5020288;28;812;-70
2023/07/17 11:15:25;;;;;;;;;;;22.70;54.10;;;;;;5020063;28;831;-70
2023/07/17 11:17:51;;;;;;;;;;;22.70;53.60;;;;;;5020293;28;828;-71
2023/07/17 11:20:17;;;;;;;;;;;22.70;53.80;;;;;;5020245;28;1910;-70
2023/07/17 11:22:42;;;;;;;;;;;22.70;54.00;;;;;;5021599;28;884;-70
2023/07/17 11:25:08;;;;;;;;;;;22.70;53.80;;;;;;5019647;28;812;-70
2023/07/17 11:27:34;;;;;;;;;;;22.70;54.70;;;;;;5021080;28;1362;-70
2023/07/17 11:29:59;;;;;;;;;;;22.70;53.50;;;;;;5020327;28;1268;-71
2023/07/17 11:32:26;;;;;;;;;;;22.60;53.50;;;;;;5018941;28;832;-70
2023/07/17 11:34:53;;;;;;;;;;;22.70;53.40;;;;;;5019757;28;811;-70
2023/07/17 11:37:31;;;;;;;;;;;22.70;52.80;;;;;;5018468;28;870;-70
2023/07/17 11:39:57;;;;;;;;;;;22.60;52.20;;;;;;5017476;28;1898;-70
2023/07/17 11:42:22;;;;;;;;;;;22.70;52.30;;;;;;5019750;28;918;-70
2023/07/17 11:44:56;;;;;;;;;;;22.60;52.20;;;;;;5019590;28;1302;-71
2023/07/17 11:47:22;;;;;;;;;;;22.60;52.30;;;;;;5022881;28;906;-71
2023/07/17 11:49:51;;;;;;;;;;;22.70;52.50;;;;;;5020853;28;1294;-70
2023/07/17 11:52:17;;;;;;;;;;;22.70;52.60;;;;;;5018116;28;888;-71
2023/07/17 11:54:43;;;;;;;;;;;22.70;52.70;;;;;;5019573;28;814;-71
2023/07/17 11:57:09;;;;;;;;;;;22.70;52.80;;;;;;5018031;28;794;-71
2023/07/17 11:59:34;;;;;;;;;;;22.80;53.00;;;;;;5019658;28;1922;-71
2023/07/17 12:02:00;;;;;;;;;;;22.70;52.50;;;;;;5020143;28;843;-71
2023/07/17 12:04:29;;;;;;;;;;;22.80;52.50;;;;;;5021494;28;966;-71
2023/07/17 12:06:58;;;;;;;;;;;22.80;52.20;;;;;;5019238;28;1316;-71
2023/07/17 12:09:23;;;;;;;;;;;22.80;52.40;;;;;;5017745;28;1299;-70
2023/07/17 12:11:49;;;;;;;;;;;22.80;52.60;;;;;;5019441;28;1703;-70
2023/07/17 12:14:15;;;;;;;;;;;22.80;52.30;;;;;;5019054;28;873;-70
2023/07/17 12:16:41;;;;;;;;;;;22.80;52.00;;;;;;5013352;28;878;-70
2023/07/17 12:19:06;;;;;;;;;;;22.80;52.10;;;;;;5017698;28;1926;-70
2023/07/17 12:21:32;;;;;;;;;;;22.80;52.30;;;;;;5017822;28;1034;-70
2023/07/17 12:23:57;;;;;;;;;;;22.80;52.60;;;;;;5017127;28;869;-70
2023/07/17 12:26:23;;;;;;;;;;;22.80;52.50;;;;;;5020523;28;960;-71
2023/07/17 12:28:48;;;;;;;;;;;22.80;51.40;;;;;;5019941;28;1378;-70
2023/07/17 12:31:14;;;;;;;;;;;22.90;51.70;;;;;;5020979;28;884;-70
2023/07/17 12:33:39;;;;;;;;;;;22.80;52.60;;;;;;5021072;28;878;-71
2023/07/17 12:36:05;;;;;;;;;;;22.80;52.50;;;;;;5018198;28;935;-70
2023/07/17 12:38:30;;;;;;;;;;;22.80;52.20;;;;;;5018966;28;1244;-70
2023/07/17 12:40:56;;;;;;;;;;;22.90;51.50;;;;;;5018629;28;1867;-70
2023/07/17 12:43:21;;;;;;;;;;;22.80;51.60;;;;;;5017375;28;792;-71
2023/07/17 12:45:46;;;;;;;;;;;22.90;51.20;;;;;;5017100;28;863;-70
2023/07/17 12:48:12;;;;;;;;;;;22.90;51.00;;;;;;5017127;28;831;-71
2023/07/17 12:50:37;;;;;;;;;;;22.90;50.60;;;;;;5018015;28;1608;-70
2023/07/17 12:53:03;;;;;;;;;;;22.90;51.00;;;;;;5023488;28;816;-71
2023/07/17 12:55:28;;;;;;;;;;;22.90;51.00;;;;;;5024254;28;875;-70
2023/07/17 12:57:54;;;;;;;;;;;22.90;51.00;;;;;;5015237;28;982;-71
2023/07/17 13:00:20;;;;;;;;;;;22.80;50.10;;;;;;5020168;28;1910;-71
2023/07/17 13:02:45;;;;;;;;;;;22.90;49.90;;;;;;5023067;28;978;-69
2023/07/17 13:05:12;;;;;;;;;;;22.80;50.00;;;;;;5018248;28;878;-69
2023/07/17 13:07:37;;;;;;;;;;;22.80;49.60;;;;;;5020824;28;856;-69
2023/07/17 13:10:03;;;;;;;;;;;22.80;49.30;;;;;;5024633;28;1342;-69
2023/07/17 13:12:29;;;;;;;;;;;22.90;50.10;;;;;;5022328;28;901;-69
2023/07/17 13:14:54;;;;;;;;;;;22.90;49.50;;;;;;5021920;28;848;-71
2023/07/17 13:17:19;;;;;;;;;;;22.90;49.20;;;;;;5020038;28;903;-72
2023/07/17 13:19:46;;;;;;;;;;;22.90;49.70;;;;;;5023990;28;1907;-71
2023/07/17 13:22:12;;;;;;;;;;;22.90;49.70;;;;;;5024633;28;820;-70
2023/07/17 13:24:38;;;;;;;;;;;22.90;49.10;;;;;;5024642;28;871;-71
2023/07/17 13:27:03;;;;;;;;;;;23.00;49.50;;;;;;5025551;28;1272;-70
2023/07/17 13:29:29;;;;;;;;;;;22.90;49.70;;;;;;5022324;28;1292;-71
2023/07/17 13:31:59;;;;;;;;;;;23.00;50.00;;;;;;5021572;28;851;-70
2023/07/17 13:34:25;;;;;;;;;;;23.00;50.00;;;;;;5003845;28;1303;-70
2023/07/17 13:36:50;;;;;;;;;;;22.90;50.00;;;;;;5024041;28;1014;-71
2023/07/17 13:39:16;;;;;;;;;;;22.90;49.80;;;;;;5024744;28;1898;-70
2023/07/17 13:41:42;;;;;;;;;;;22.90;49.70;;;;;;5023857;28;909;-69
2023/07/17 13:44:08;;;;;;;;;;;22.90;49.50;;;;;;5020802;28;827;-68
2023/07/17 13:46:34;;;;;;;;;;;23.00;49.00;;;;;;5024117;28;836;-70
2023/07/17 13:48:59;;;;;;;;;;;22.90;49.30;;;;;;5030649;28;1279;-70
2023/07/17 13:51:25;;;;;;;;;;;23.00;49.10;;;;;;5023490;28;939;-70
2023/07/17 13:53:50;;;;;;;;;;;23.00;49.20;;;;;;5024488;28;816;-70
2023/07/17 13:56:16;;;;;;;;;;;23.00;49.00;;;;;;5027404;28;1959;-70
2023/07/17 13:58:42;;;;;;;;;;;23.00;49.10;;;;;;5022072;28;1620;-70
2023/07/17 14:01:07;;;;;;;;;;;23.00;48.80;;;;;;5023416;28;1902;-70
2023/07/17 14:03:33;;;;;;;;;;;23.00;48.80;;;;;;5003507;28;927;-69
2023/07/17 14:05:58;;;;;;;;;;;23.00;49.10;;;;;;5021936;28;887;-69
2023/07/17 14:08:24;;;;;;;;;;;23.00;49.40;;;;;;5017381;28;1070;-70
2023/07/17 14:10:49;;;;;;;;;;;23.00;49.70;;;;;;5022338;28;1309;-70
2023/07/17 14:13:15;;;;;;;;;;;23.00;50.00;;;;;;5018953;28;884;-69
2023/07/17 14:15:40;;;;;;;;;;;23.00;50.30;;;;;;5020898;28;1050;-70
2023/07/17 14:18:05;;;;;;;;;;;23.00;49.90;;;;;;5019755;28;1010;-70
2023/07/17 14:20:31;;;;;;;;;;;23.00;49.20;;;;;;5023101;28;1998;-69
2023/07/17 14:22:56;;;;;;;;;;;23.00;49.40;;;;;;5022174;28;1110;-70
2023/07/17 14:25:23;;;;;;;;;;;23.00;49.40;;;;;;5023602;28;1363;-70
2023/07/17 14:27:49;;;;;;;;;;;23.00;49.40;;;;;;5021207;28;1302;-69